Time;durP1;ratioP1;P1;durP2;ratioP2;P2;SDS_P1;SDS_P2;PMS_P1;PMS_P2;Temp;Humidity;BMP_temperature;BMP_pressure;BME280_temperature;BME280_humidity;BME280_pressure;Samples;Min_cycle;Max_cycle;Signal;HPM_P1;HPM_P2
2021/12/22 00:01:35;;;;;;;20.05;10.73;;;;;;;-5.96;100.00;99652.56;5059593;28;20404;-67
2021/12/22 00:04:00;;;;;;;29.58;10.32;;;;;;;-5.90;100.00;99659.28;5035892;28;20025;-66
2021/12/22 00:06:27;;;;;;;24.52;10.68;;;;;;;-5.77;100.00;99675.31;5044942;28;20021;-66
2021/12/22 00:08:52;;;;;;;21.38;10.60;;;;;;;-5.86;100.00;99675.78;5050642;28;20437;-67
2021/12/22 00:11:18;;;;;;;24.30;12.50;;;;;;;-5.88;100.00;99672.38;5049620;28;20032;-66
2021/12/22 00:13:44;;;;;;;30.60;12.30;;;;;;;-5.87;100.00;99671.44;5066536;28;20036;-67
2021/12/22 00:16:09;;;;;;;27.42;12.20;;;;;;;-5.91;100.00;99677.81;5069315;28;20040;-67
2021/12/22 00:18:35;;;;;;;30.13;12.15;;;;;;;-5.93;100.00;99679.69;5075215;28;20094;-66
2021/12/22 00:21:01;;;;;;;28.45;12.95;;;;;;;-5.96;100.00;99686.81;5065581;28;20064;-67
2021/12/22 00:23:26;;;;;;;27.75;12.60;;;;;;;-6.01;100.00;99680.06;5052138;28;20055;-66
2021/12/22 00:25:52;;;;;;;22.27;11.00;;;;;;;-6.04;100.00;99678.44;5050503;28;20029;-67
2021/12/22 00:28:18;;;;;;;31.70;11.30;;;;;;;-6.09;100.00;99672.56;5052155;28;20527;-67
2021/12/22 00:30:44;;;;;;;26.55;12.68;;;;;;;-6.08;100.00;99670.78;5058561;28;20021;-66
2021/12/22 00:33:11;;;;;;;23.75;11.23;;;;;;;-6.08;100.00;99668.97;5060531;28;20025;-66
2021/12/22 00:35:43;;;;;;;24.67;11.48;;;;;;;-6.14;100.00;99671.94;5053466;28;20035;-67
2021/12/22 00:38:10;;;;;;;36.50;13.48;;;;;;;-6.29;100.00;99665.63;5065717;28;20021;-66
2021/12/22 00:40:38;;;;;;;27.00;12.18;;;;;;;-6.36;100.00;99666.06;5050854;28;20037;-67
2021/12/22 00:43:04;;;;;;;25.48;12.48;;;;;;;-6.28;100.00;99672.63;5056425;28;20428;-66
2021/12/22 00:45:32;;;;;;;29.23;11.55;;;;;;;-6.29;100.00;99676.16;5058361;28;20085;-66
2021/12/22 00:47:58;;;;;;;21.87;10.83;;;;;;;-6.42;100.00;99654.00;5066541;28;20029;-66
2021/12/22 00:50:23;;;;;;;26.13;11.10;;;;;;;-6.36;100.00;99666.91;5052977;28;20286;-66
2021/12/22 00:52:49;;;;;;;23.25;11.05;;;;;;;-6.32;100.00;99667.59;5058099;28;20029;-67
2021/12/22 00:55:18;;;;;;;31.67;11.25;;;;;;;-6.28;100.00;99675.25;5037898;28;20056;-67
2021/12/22 00:57:44;;;;;;;28.20;11.82;;;;;;;-6.28;100.00;99677.06;5034704;28;20391;-67
2021/12/22 01:00:10;;;;;;;29.60;13.10;;;;;;;-6.34;100.00;99674.69;5045997;28;20025;-67
2021/12/22 01:02:35;;;;;;;28.10;12.82;;;;;;;-6.40;100.00;99665.31;5056310;28;20024;-66
2021/12/22 01:05:01;;;;;;;27.98;11.75;;;;;;;-6.42;100.00;99675.94;5048924;28;20026;-66
2021/12/22 01:07:26;;;;;;;30.58;11.57;;;;;;;-6.45;100.00;99670.81;5054475;28;20025;-66
2021/12/22 01:09:52;;;;;;;24.88;12.15;;;;;;;-6.44;100.00;99656.75;5054204;28;20021;-67
2021/12/22 01:12:17;;;;;;;25.77;10.48;;;;;;;-6.35;100.00;99673.00;5053326;28;20115;-67
2021/12/22 01:14:43;;;;;;;23.88;10.13;;;;;;;-6.42;100.00;99675.06;5045404;28;20107;-67
2021/12/22 01:17:11;;;;;;;25.48;11.02;;;;;;;-6.50;100.00;99685.97;5056265;28;20025;-66
2021/12/22 01:19:46;;;;;;;28.65;12.20;;;;;;;-6.52;100.00;99677.31;5061842;28;20121;-67
2021/12/22 01:25:21;;;;;;;22.70;11.20;;;;;;;-6.49;100.00;99686.84;5012500;28;20021;-67
2021/12/22 01:27:47;;;;;;;25.08;11.20;;;;;;;-6.31;100.00;99679.81;4997942;28;20037;-69
2021/12/22 01:30:15;;;;;;;29.77;11.50;;;;;;;-6.36;100.00;99687.13;5024380;28;20781;-67
2021/12/22 01:32:42;;;;;;;27.13;9.38;;;;;;;-6.35;100.00;99683.53;5063166;28;20021;-67
2021/12/22 01:35:10;;;;;;;22.55;10.32;;;;;;;-6.19;100.00;99674.78;5044252;28;20120;-68
2021/12/22 01:37:35;;;;;;;23.98;9.98;;;;;;;-6.34;100.00;99658.91;5033842;28;20025;-66
2021/12/22 01:40:01;;;;;;;18.73;8.80;;;;;;;-6.34;100.00;99680.84;5044457;28;20040;-68
2021/12/22 01:42:28;;;;;;;19.55;7.80;;;;;;;-6.42;100.00;99677.69;5058597;28;20024;-69
2021/12/22 01:50:15;;;;;;;21.88;9.95;;;;;;;-6.45;100.00;99678.72;5040444;28;20075;-67
2021/12/22 01:52:40;;;;;;;27.73;12.23;;;;;;;-6.56;100.00;99681.00;5040560;28;20100;-67
2021/12/22 01:55:14;;;;;;;30.45;11.65;;;;;;;-6.50;100.00;99687.75;5039795;28;20090;-67
2021/12/22 01:57:46;;;;;;;32.35;13.50;;;;;;;-6.70;100.00;99686.09;5039448;28;22469;-67
2021/12/22 02:00:14;;;;;;;26.02;10.98;;;;;;;-6.77;100.00;99692.56;5039710;28;20056;-68
2021/12/22 02:02:39;;;;;;;31.85;12.57;;;;;;;-6.81;100.00;99689.25;5056666;28;20040;-67
2021/12/22 02:05:06;;;;;;;27.58;11.02;;;;;;;-6.87;100.00;99700.88;5039588;28;20060;-68
2021/12/22 02:07:31;;;;;;;28.45;11.50;;;;;;;-6.84;100.00;99678.84;5047884;28;20025;-67
2021/12/22 02:12:35;;;;;;;25.40;11.23;;;;;;;-6.69;100.00;99696.53;5040914;28;20029;-67
2021/12/22 02:15:03;;;;;;;23.38;10.45;;;;;;;-6.68;100.00;99702.66;5038546;28;20037;-68
2021/12/22 02:17:29;;;;;;;23.57;10.27;;;;;;;-6.76;100.00;99694.25;5040108;28;20043;-68
2021/12/22 02:19:54;;;;;;;20.23;9.48;;;;;;;-6.48;100.00;99699.91;5039047;28;20017;-68
2021/12/22 02:22:20;;;;;;;20.08;9.45;;;;;;;-6.36;100.00;99718.72;5038731;28;20028;-67
2021/12/22 02:24:52;;;;;;;18.85;9.35;;;;;;;-6.40;100.00;99724.09;5039626;28;20088;-67
2021/12/22 02:27:26;;;;;;;25.08;10.45;;;;;;;-6.51;100.00;99718.50;5039983;28;20043;-67
2021/12/22 02:29:58;;;;;;;24.38;9.77;;;;;;;-6.63;100.00;99719.06;5039870;28;20111;-67
2021/12/22 02:33:19;;;;;;;23.02;9.85;;;;;;;-6.67;100.00;99709.63;5038652;28;20032;-67
2021/12/22 02:35:13;;;;;;;21.73;9.10;;;;;;;-6.59;100.00;99704.00;5036486;28;20107;-67
2021/12/22 02:37:44;;;;;;;25.63;9.00;;;;;;;-6.73;100.00;99684.47;5039217;28;20038;-67
2021/12/22 02:40:17;;;;;;;16.50;8.32;;;;;;;-6.65;100.00;99702.53;5038288;28;20070;-67
2021/12/22 02:42:46;;;;;;;16.50;7.57;;;;;;;-6.70;100.00;99705.38;5039268;28;20421;-67
2021/12/22 02:45:15;;;;;;;18.70;7.00;;;;;;;-6.75;100.00;99698.63;5039164;28;20033;-67
2021/12/22 02:47:40;;;;;;;20.02;9.13;;;;;;;-6.97;100.00;99672.44;5043937;28;20044;-69
2021/12/22 02:50:08;;;;;;;17.65;8.30;;;;;;;-6.85;100.00;99695.56;5039473;28;20032;-67
2021/12/22 02:52:48;;;;;;;20.67;8.48;;;;;;;-6.88;100.00;99691.28;5039618;28;20114;-67
2021/12/22 02:55:13;;;;;;;19.15;8.88;;;;;;;-6.95;100.00;99689.88;5049248;28;20115;-67
2021/12/22 02:57:45;;;;;;;18.77;8.05;;;;;;;-7.08;100.00;99680.84;5054705;28;20056;-67
2021/12/22 03:05:25;;;;;;;20.52;8.90;;;;;;;-7.09;100.00;99698.41;5029931;28;20033;-66
2021/12/22 03:07:50;;;;;;;23.73;8.65;;;;;;;-6.84;100.00;99681.47;5042658;28;20020;-67
2021/12/22 03:10:18;;;;;;;21.83;9.02;;;;;;;-6.72;100.00;99698.47;5057635;28;20401;-68
2021/12/22 03:12:46;;;;;;;17.35;7.85;;;;;;;-7.31;100.00;99600.38;5062144;28;20497;-67
2021/12/22 03:15:12;;;;;;;13.23;6.05;;;;;;;-6.65;100.00;99697.25;5057433;28;20436;-67
2021/12/22 03:17:38;;;;;;;20.27;8.32;;;;;;;-6.67;100.00;99699.94;5044908;28;20033;-67
2021/12/22 03:20:11;;;;;;;19.23;9.02;;;;;;;-6.66;100.00;99687.63;5062141;28;20370;-67
2021/12/22 03:22:37;;;;;;;20.45;8.77;;;;;;;-6.66;100.00;99700.81;5057851;28;20040;-67
2021/12/22 03:25:13;;;;;;;18.52;7.72;;;;;;;-6.59;100.00;99706.63;5055662;28;20035;-68
2021/12/22 03:27:38;;;;;;;21.42;8.38;;;;;;;-6.70;100.00;99694.00;5052851;28;20043;-67
2021/12/22 03:30:04;;;;;;;24.83;8.50;;;;;;;-6.69;100.00;99698.31;5062439;28;20032;-67
2021/12/22 03:32:29;;;;;;;21.60;8.93;;;;;;;-6.77;100.00;99682.03;5046188;28;20130;-67
2021/12/22 03:34:54;;;;;;;19.73;8.95;;;;;;;-6.68;100.00;99708.78;5055988;28;20493;-67
2021/12/22 03:37:20;;;;;;;18.33;8.02;;;;;;;-6.71;100.00;99706.28;5052814;28;20692;-67
2021/12/22 03:39:45;;;;;;;19.65;8.70;;;;;;;-6.62;100.00;99707.63;5055746;28;20029;-67
2021/12/22 03:42:11;;;;;;;22.13;8.88;;;;;;;-6.68;100.00;99703.53;5060292;28;20025;-68
2021/12/22 03:44:37;;;;;;;19.23;8.68;;;;;;;-6.75;100.00;99698.63;5037088;28;20441;-67
2021/12/22 03:47:03;;;;;;;16.75;8.75;;;;;;;-6.82;100.00;99699.81;5038070;28;20025;-67
2021/12/22 03:49:28;;;;;;;21.15;9.38;;;;;;;-6.75;100.00;99710.00;5048696;28;20027;-68
2021/12/22 03:51:54;;;;;;;19.48;8.57;;;;;;;-6.73;100.00;99716.03;5062998;28;20626;-68
2021/12/22 03:54:20;;;;;;;21.63;9.95;;;;;;;-6.76;100.00;99708.28;5041645;28;20148;-67
2021/12/22 03:56:45;;;;;;;22.58;9.63;;;;;;;-6.64;100.00;99704.22;5051961;28;20043;-70
2021/12/22 03:59:11;;;;;;;25.75;10.48;;;;;;;-6.53;100.00;99707.19;5051140;28;20033;-68
2021/12/22 04:01:36;;;;;;;22.17;9.05;;;;;;;-6.51;100.00;99712.38;5046209;28;20029;-68
2021/12/22 04:04:09;;;;;;;20.90;8.98;;;;;;;-6.63;100.00;99687.50;5052631;28;20111;-69
2021/12/22 04:06:34;;;;;;;19.70;8.48;;;;;;;-6.33;100.00;99697.50;5057054;28;20083;-68
2021/12/22 04:09:00;;;;;;;26.05;9.57;;;;;;;-6.44;100.00;99690.13;5073802;28;20005;-68
2021/12/22 04:11:25;;;;;;;25.60;8.05;;;;;;;-6.79;100.00;99645.28;5055846;28;20112;-68
2021/12/22 04:13:50;;;;;;;20.10;8.18;;;;;;;-6.42;100.00;99698.75;5057517;28;20489;-68
2021/12/22 04:16:16;;;;;;;19.27;8.48;;;;;;;-6.35;100.00;99691.44;5061312;28;20037;-68
2021/12/22 04:18:41;;;;;;;19.80;8.80;;;;;;;-6.40;100.00;99697.75;5045087;28;20108;-68
2021/12/22 04:21:06;;;;;;;23.13;9.50;;;;;;;-6.51;100.00;99697.44;5035565;28;20386;-68
2021/12/22 04:23:32;;;;;;;23.65;8.48;;;;;;;-6.64;100.00;99691.91;5049706;28;20445;-69
2021/12/22 04:25:57;;;;;;;18.98;7.93;;;;;;;-6.51;100.00;99700.06;5065086;28;20045;-69
2021/12/22 04:28:23;;;;;;;25.60;9.10;;;;;;;-6.64;100.00;99688.44;5064225;28;20127;-68
2021/12/22 04:30:50;;;;;;;21.58;9.57;;;;;;;-6.62;100.00;99703.22;5037549;28;20111;-68
2021/12/22 04:33:19;;;;;;;20.52;8.48;;;;;;;-6.66;100.00;99704.28;5049608;28;20021;-68
2021/12/22 04:35:44;;;;;;;;;;;;;;;-6.47;100.00;99706.03;5055586;28;20131;-68
2021/12/22 04:38:10;;;;;;;24.95;9.32;;;;;;;-6.43;100.00;99694.44;5045358;28;19916;-68
2021/12/22 04:40:35;;;;;;;25.88;10.13;;;;;;;-6.37;100.00;99695.91;5048265;28;20033;-68
2021/12/22 04:43:01;;;;;;;35.55;11.50;;;;;;;-6.50;100.00;99669.34;5053563;28;20054;-68
2021/12/22 04:45:26;;;;;;;25.42;9.25;;;;;;;-6.37;100.00;99678.34;5061434;28;20032;-68
2021/12/22 04:47:51;;;;;;;20.83;9.43;;;;;;;-6.32;100.00;99692.13;5061557;28;20033;-68
2021/12/22 04:50:19;;;;;;;19.65;8.90;;;;;;;-6.30;100.00;99686.81;5043426;28;20028;-68
2021/12/22 04:53:00;;;;;;;20.17;9.90;;;;;;;-6.81;100.00;99609.44;5063089;28;20036;-68
2021/12/22 04:55:27;;;;;;;25.73;9.52;;;;;;;-6.40;100.00;99665.31;5053457;28;20032;-68
2021/12/22 04:57:54;;;;;;;18.88;9.02;;;;;;;-6.49;100.00;99674.53;5048697;28;20040;-69
2021/12/22 05:00:21;;;;;;;18.50;8.60;;;;;;;-6.67;100.00;99680.69;5043744;28;20025;-69
2021/12/22 05:02:47;;;;;;;20.52;8.98;;;;;;;-6.71;100.00;99677.31;5058685;28;20406;-68
2021/12/22 05:05:12;;;;;;;23.60;9.60;;;;;;;-6.84;100.00;99670.94;5041438;28;20032;-68
2021/12/22 05:07:38;;;;;;;21.15;9.80;;;;;;;-7.05;100.00;99643.88;5042260;28;20107;-68
2021/12/22 05:10:05;;;;;;;20.70;9.38;;;;;;;-7.01;100.00;99653.34;5040128;28;20032;-69
2021/12/22 05:12:30;;;;;;;20.25;9.40;;;;;;;-6.85;100.00;99675.34;5042078;28;20044;-69
2021/12/22 05:14:56;;;;;;;25.20;10.20;;;;;;;-6.96;100.00;99658.38;5041194;28;20037;-69
2021/12/22 05:17:27;;;;;;;20.85;9.20;;;;;;;-7.68;100.00;99561.81;5040728;28;20111;-69
2021/12/22 05:19:52;;;;;;;22.08;8.55;;;;;;;-7.10;100.00;99659.88;5040859;28;22307;-69
2021/12/22 05:22:18;;;;;;;20.85;8.68;;;;;;;-7.08;100.00;99672.94;5038497;28;20029;-68
2021/12/22 05:24:44;;;;;;;18.52;9.18;;;;;;;-7.08;100.00;99678.22;5042153;28;20029;-68
2021/12/22 05:27:11;;;;;;;18.38;8.77;;;;;;;-7.10;100.00;99683.56;5041284;28;20036;-68
2021/12/22 05:29:38;;;;;;;19.13;8.82;;;;;;;-7.09;100.00;99687.03;5041607;28;20025;-68
2021/12/22 05:32:04;;;;;;;19.35;8.32;;;;;;;-7.21;100.00;99674.44;5040809;28;20056;-69
2021/12/22 05:34:30;;;;;;;21.83;8.68;;;;;;;-7.10;100.00;99693.19;5050720;28;20048;-69
2021/12/22 05:36:55;;;;;;;20.55;8.35;;;;;;;-7.13;100.00;99695.97;5041477;28;20664;-69
2021/12/22 05:39:21;;;;;;;21.73;9.10;;;;;;;-7.22;100.00;99696.41;5040659;28;20035;-69
2021/12/22 05:41:46;;;;;;;16.70;8.70;;;;;;;-7.20;100.00;99697.19;5041019;28;20504;-68
2021/12/22 05:44:12;;;;;;;21.17;9.30;;;;;;;-7.28;100.00;99698.38;5040205;28;20037;-68
2021/12/22 05:46:37;;;;;;;23.23;9.80;;;;;;;-7.57;100.00;99662.03;5043638;28;20090;-70
2021/12/22 05:49:02;;;;;;;19.75;8.98;;;;;;;-7.45;100.00;99698.28;5040557;28;20036;-69
2021/12/22 05:51:30;;;;;;;22.33;10.38;;;;;;;-7.36;100.00;99707.53;5040306;28;20139;-69
2021/12/22 05:53:56;;;;;;;25.55;10.20;;;;;;;-7.43;100.00;99687.72;5039977;28;20117;-68
2021/12/22 05:56:21;;;;;;;21.77;9.68;;;;;;;-7.30;100.00;99705.47;5039970;28;20092;-68
2021/12/22 05:58:46;;;;;;;20.08;8.80;;;;;;;-7.36;100.00;99705.78;5040873;28;20052;-68
2021/12/22 06:01:12;;;;;;;21.63;9.93;;;;;;;-7.36;100.00;99710.16;5039278;28;20025;-69
2021/12/22 06:03:37;;;;;;;25.02;9.45;;;;;;;-7.63;100.00;99670.19;5042017;28;20033;-68
2021/12/22 06:06:03;;;;;;;27.58;10.73;;;;;;;-7.25;100.00;99710.53;5038996;28;20024;-68
2021/12/22 06:08:28;;;;;;;23.48;10.07;;;;;;;-7.16;100.00;99675.94;5043278;28;20056;-72
2021/12/22 06:10:54;;;;;;;27.02;11.25;;;;;;;-6.90;100.00;99694.91;5050765;28;20059;-74
2021/12/22 06:13:19;;;;;;;24.77;10.52;;;;;;;-6.90;100.00;99681.75;5045537;28;20478;-72
2021/12/22 06:15:45;;;;;;;23.10;10.43;;;;;;;-6.91;100.00;99680.06;5051492;28;20029;-73
2021/12/22 06:18:10;;;;;;;21.52;9.82;;;;;;;-6.77;100.00;99700.47;5054149;28;20074;-74
2021/12/22 06:20:36;;;;;;;23.63;10.00;;;;;;;-6.76;100.00;99699.53;5045503;28;20746;-71
2021/12/22 06:23:02;;;;;;;23.38;10.18;;;;;;;-6.86;100.00;99704.38;5049692;28;20021;-71
2021/12/22 06:25:28;;;;;;;21.23;9.95;;;;;;;-7.00;100.00;99709.41;5046510;28;20827;-72
2021/12/22 06:27:54;;;;;;;21.45;9.38;;;;;;;-6.95;100.00;99707.44;5048980;28;20029;-71
2021/12/22 06:30:20;;;;;;;30.42;10.48;;;;;;;-6.90;100.00;99698.41;5047140;28;20033;-70
2021/12/22 06:32:50;;;;;;;26.65;11.13;;;;;;;-6.89;100.00;99694.88;5047177;28;20474;-72
2021/12/22 06:35:16;;;;;;;29.40;11.73;;;;;;;-7.15;100.00;99680.28;5065582;28;20530;-72
2021/12/22 06:37:45;;;;;;;40.50;14.85;;;;;;;-6.96;100.00;99688.16;5060358;28;20029;-71
2021/12/22 06:40:11;;;;;;;44.97;16.17;;;;;;;-6.87;100.00;99692.13;5051100;28;20090;-73
2021/12/22 06:42:40;;;;;;;54.17;19.45;;;;;;;-7.11;100.00;99670.47;5050239;28;20376;-73
2021/12/22 06:45:07;;;;;;;36.88;13.93;;;;;;;-7.00;100.00;99694.47;5052992;28;20421;-72
2021/12/22 06:47:33;;;;;;;38.60;14.38;;;;;;;-7.12;100.00;99645.09;5042420;28;20112;-66
2021/12/22 06:49:58;;;;;;;32.13;14.82;;;;;;;-6.91;100.00;99685.34;5051727;28;20080;-66
2021/12/22 06:52:23;;;;;;;29.77;12.07;;;;;;;-7.22;100.00;99639.41;5053962;28;20028;-67
2021/12/22 06:54:49;;;;;;;31.27;12.57;;;;;;;-6.72;100.00;99687.94;5057443;28;20050;-66
2021/12/22 06:57:18;;;;;;;28.27;12.38;;;;;;;-7.00;100.00;99646.28;5051416;28;20041;-70
2021/12/22 06:59:44;;;;;;;23.13;11.25;;;;;;;-6.90;100.00;99677.34;5048796;28;20028;-73
2021/12/22 07:02:09;;;;;;;31.08;12.45;;;;;;;-6.75;100.00;99698.63;5051913;28;20029;-66
2021/12/22 07:04:34;;;;;;;26.02;11.35;;;;;;;-6.61;100.00;99689.13;5050175;28;20032;-66
2021/12/22 07:07:00;;;;;;;28.88;11.52;;;;;;;-6.55;100.00;99695.91;5054533;28;20719;-67
2021/12/22 07:09:26;;;;;;;28.60;12.38;;;;;;;-6.40;100.00;99692.50;5047763;28;20021;-67
2021/12/22 07:11:52;;;;;;;26.63;12.23;;;;;;;-6.33;100.00;99697.50;5041112;28;20386;-68
2021/12/22 07:14:18;;;;;;;27.05;12.05;;;;;;;-6.33;100.00;99702.75;5043827;28;20773;-66
2021/12/22 07:16:45;;;;;;;25.45;11.63;;;;;;;-6.50;100.00;99678.06;5050765;28;20024;-66
2021/12/22 07:19:11;;;;;;;30.17;11.32;;;;;;;-6.35;100.00;99704.59;5042283;28;20021;-69
2021/12/22 07:21:37;;;;;;;25.65;11.95;;;;;;;-6.50;100.00;99727.25;5051458;28;20640;-66
2021/12/22 07:24:03;;;;;;;24.35;11.32;;;;;;;-6.66;100.00;99727.13;5036380;28;20036;-65
2021/12/22 07:26:28;;;;;;;25.65;11.57;;;;;;;-6.69;100.00;99727.25;5037178;28;20020;-66
2021/12/22 07:28:54;;;;;;;30.90;12.25;;;;;;;-6.66;100.00;99727.97;5045896;28;20028;-66
2021/12/22 07:31:19;;;;;;;25.38;11.05;;;;;;;-6.63;100.00;99716.44;5042019;28;20020;-66
2021/12/22 07:33:59;;;;;;;26.35;11.98;;;;;;;-6.64;100.00;99727.91;5035588;28;20447;-65
2021/12/22 07:36:25;;;;;;;23.88;10.82;;;;;;;-6.59;100.00;99738.22;5043718;28;20247;-66
2021/12/22 07:38:59;;;;;;;27.00;11.55;;;;;;;-6.50;100.00;99735.13;5052135;28;20029;-66
2021/12/22 07:41:24;;;;;;;30.45;12.38;;;;;;;-6.47;100.00;99746.41;5035822;28;20112;-67
2021/12/22 07:43:50;;;;;;;28.48;12.05;;;;;;;-6.59;100.00;99728.53;5038666;28;20128;-65
2021/12/22 07:46:15;;;;;;;29.27;12.27;;;;;;;-6.56;100.00;99744.19;5037988;28;20793;-66
2021/12/22 07:48:40;;;;;;;26.98;11.70;;;;;;;-6.73;100.00;99717.78;5038991;28;20040;-72
2021/12/22 07:51:06;;;;;;;23.63;11.27;;;;;;;-6.79;100.00;99700.53;5049215;28;20075;-73
2021/12/22 07:53:31;;;;;;;24.10;10.95;;;;;;;-6.46;100.00;99734.94;5043685;28;20018;-66
2021/12/22 07:55:57;;;;;;;27.67;12.13;;;;;;;-6.35;100.00;99736.19;5047333;28;20071;-66
2021/12/22 07:58:24;;;;;;;25.65;11.50;;;;;;;-6.40;100.00;99732.00;5054788;28;20055;-72
2021/12/22 08:00:50;;;;;;;23.73;11.38;;;;;;;-6.49;100.00;99707.91;5051638;28;20115;-72
2021/12/22 08:03:16;;;;;;;27.35;12.15;;;;;;;-6.32;100.00;99729.00;5046721;28;20055;-72
2021/12/22 08:05:41;;;;;;;27.42;11.35;;;;;;;-6.40;100.00;99702.19;5051852;28;20060;-72
2021/12/22 08:08:07;;;;;;;29.33;12.20;;;;;;;-6.03;100.00;99727.56;5057979;28;20653;-66
2021/12/22 08:10:33;;;;;;;30.30;11.88;;;;;;;-5.83;99.62;99738.88;5046636;28;20064;-66
2021/12/22 08:12:58;;;;;;;23.73;11.23;;;;;;;-5.90;99.49;99703.22;5044553;28;20033;-66
2021/12/22 08:15:24;;;;;;;29.58;12.88;;;;;;;-5.68;99.42;99711.75;5044339;28;20041;-69
2021/12/22 08:17:50;;;;;;;25.40;11.75;;;;;;;-5.43;99.20;99737.69;5059253;28;20059;-70
2021/12/22 08:20:15;;;;;;;25.17;11.88;;;;;;;-5.52;98.06;99723.19;5055854;28;20070;-68
2021/12/22 08:22:41;;;;;;;26.27;11.35;;;;;;;-5.40;98.13;99732.25;5050224;28;20029;-65
2021/12/22 08:25:07;;;;;;;28.05;11.13;;;;;;;-5.48;98.74;99684.34;5061352;28;20403;-75
2021/12/22 08:27:33;;;;;;;24.88;11.50;;;;;;;-5.01;98.99;99749.56;5056631;28;20033;-66
2021/12/22 08:29:59;;;;;;;26.45;12.00;;;;;;;-4.94;98.08;99742.19;5062640;28;20079;-66
2021/12/22 08:32:24;;;;;;;29.13;11.75;;;;;;;-4.88;96.80;99745.31;5056945;28;20043;-66
2021/12/22 08:34:55;;;;;;;30.70;15.25;;;;;;;-4.69;96.88;99745.19;5061823;28;20035;-67
2021/12/22 08:40:06;;;;;;;30.50;14.10;;;;;;;-3.29;92.25;99696.63;5043944;28;20044;-67
2021/12/22 08:42:32;;;;;;;26.25;12.60;;;;;;;-1.38;85.29;99725.78;5042364;28;20387;-67
2021/12/22 08:44:57;;;;;;;26.67;14.02;;;;;;;0.71;82.75;99716.81;5042915;28;20025;-67
2021/12/22 08:47:23;;;;;;;40.45;19.30;;;;;;;2.09;68.53;99712.94;5055908;28;20033;-67
2021/12/22 08:49:48;;;;;;;47.30;22.42;;;;;;;3.04;63.81;99704.91;5046606;28;20099;-67
2021/12/22 08:52:14;;;;;;;42.45;21.10;;;;;;;3.81;62.18;99684.75;5063147;28;20036;-67
2021/12/22 08:54:39;;;;;;;40.97;19.20;;;;;;;4.11;54.49;99692.66;5049328;28;20032;-72
2021/12/22 08:57:05;;;;;;;32.15;16.08;;;;;;;5.61;55.12;99691.03;5044308;28;20044;-67
2021/12/22 08:59:31;;;;;;;26.67;14.35;;;;;;;6.40;50.54;99670.69;5050450;28;20029;-66
2021/12/22 09:01:56;;;;;;;22.95;11.70;;;;;;;7.54;44.83;99672.38;5055957;28;20386;-67
2021/12/22 09:04:22;;;;;;;21.63;11.75;;;;;;;8.18;44.35;99672.75;5048740;28;20060;-68
2021/12/22 09:06:49;;;;;;;20.17;10.98;;;;;;;9.12;43.26;99674.06;5061665;28;20029;-68
2021/12/22 09:09:19;;;;;;;20.77;11.98;;;;;;;8.40;41.02;99677.50;5058024;28;20036;-68
2021/12/22 09:11:44;;;;;;;18.58;12.13;;;;;;;7.42;44.59;99682.63;5048467;28;20037;-68
2021/12/22 09:14:12;;;;;;;21.25;12.80;;;;;;;7.08;43.97;99688.00;5044831;28;20041;-68
2021/12/22 09:16:44;;;;;;;21.10;13.57;;;;;;;7.83;42.75;99680.94;5041458;28;20209;-72
2021/12/22 09:19:10;;;;;;;26.10;13.43;;;;;;;7.77;41.98;99676.16;5045184;28;20036;-74
2021/12/22 09:21:37;;;;;;;21.13;13.18;;;;;;;9.28;41.39;99671.31;5057138;28;20386;-74
2021/12/22 09:24:02;;;;;;;20.63;13.10;;;;;;;10.41;39.06;99678.19;5052866;28;20509;-74
2021/12/22 09:26:28;;;;;;;24.85;13.85;;;;;;;10.50;39.18;99664.38;5049571;28;20032;-73
2021/12/22 09:28:54;;;;;;;23.13;13.57;;;;;;;10.90;37.56;99675.06;5060407;28;20024;-74
2021/12/22 09:31:20;;;;;;;23.80;13.90;;;;;;;10.53;39.38;99674.00;5049381;28;20032;-72
2021/12/22 09:33:46;;;;;;;22.67;12.85;;;;;;;11.25;37.81;99669.94;5059408;28;20033;-71
2021/12/22 09:36:13;;;;;;;18.55;12.52;;;;;;;12.52;36.02;99672.28;5046376;28;20552;-72
2021/12/22 09:38:39;;;;;;;19.67;12.70;;;;;;;13.18;34.80;99664.69;5048428;28;20036;-72
2021/12/22 09:41:05;;;;;;;18.85;12.50;;;;;;;13.86;33.80;99669.44;5048072;28;20501;-75
2021/12/22 09:43:30;;;;;;;17.90;12.20;;;;;;;13.88;33.54;99656.47;5061551;28;20032;-76
2021/12/22 09:46:01;;;;;;;16.95;12.40;;;;;;;14.74;32.44;99661.28;5047512;28;20090;-76
2021/12/22 09:53:43;;;;;;;12.63;9.82;;;;;;;15.55;31.24;99658.22;5028581;28;20198;-74
2021/12/22 09:56:09;;;;;;;21.08;11.35;;;;;;;15.05;31.41;99657.91;5061374;28;20033;-75
2021/12/22 09:58:36;;;;;;;16.45;10.95;;;;;;;14.51;32.16;99656.19;5052350;28;20032;-70
2021/12/22 10:01:02;;;;;;;14.45;11.23;;;;;;;14.23;32.13;99647.16;5062685;28;20400;-69
2021/12/22 10:03:27;;;;;;;15.85;11.43;;;;;;;13.87;32.31;99647.50;5047867;28;20108;-71
2021/12/22 10:05:53;;;;;;;15.32;10.90;;;;;;;13.43;34.64;99650.63;5045841;28;20028;-70
2021/12/22 10:08:25;;;;;;;16.42;11.07;;;;;;;12.57;34.03;99646.25;5057028;28;20056;-71
2021/12/22 10:11:11;;;;;;;15.00;10.30;;;;;;;12.31;34.58;99633.28;5053700;28;20020;-71
2021/12/22 10:13:39;;;;;;;15.10;11.50;;;;;;;13.63;32.93;99627.09;5044192;28;20020;-70
2021/12/22 10:16:15;;;;;;;14.10;10.90;;;;;;;12.83;34.25;99615.75;5045755;28;20391;-72
2021/12/22 10:18:40;;;;;;;17.77;11.25;;;;;;;13.18;33.62;99618.50;5049401;28;20033;-71
2021/12/22 10:21:23;;;;;;;14.10;11.38;;;;;;;12.93;33.89;99621.66;5038631;28;20604;-71
2021/12/22 10:23:51;;;;;;;15.68;11.18;;;;;;;13.07;34.06;99606.31;5039869;28;20021;-71
2021/12/22 10:26:27;;;;;;;15.48;11.32;;;;;;;13.79;33.54;99605.00;5043124;28;20036;-71
2021/12/22 10:28:56;;;;;;;16.55;11.52;;;;;;;14.32;33.09;99597.97;5043260;28;20064;-70
2021/12/22 10:31:34;;;;;;;14.93;11.00;;;;;;;14.18;32.52;99580.81;5042383;28;20025;-70
2021/12/22 10:34:05;;;;;;;16.70;12.50;;;;;;;13.98;32.04;99586.19;5036573;28;20509;-70
2021/12/22 10:36:42;;;;;;;15.02;11.60;;;;;;;12.98;33.66;99598.50;5042087;28;20288;-70
2021/12/22 10:39:17;;;;;;;13.38;10.88;;;;;;;13.33;32.97;99597.47;5040705;28;20076;-70
2021/12/22 10:41:43;;;;;;;18.00;11.43;;;;;;;12.57;33.93;99582.97;5044888;28;20048;-69
2021/12/22 10:44:08;;;;;;;15.57;11.70;;;;;;;9.97;38.25;99584.16;5044546;28;20454;-69
2021/12/22 10:46:35;;;;;;;16.60;10.73;;;;;;;12.66;34.52;99568.22;5044042;28;20383;-69
2021/12/22 10:49:20;;;;;;;17.77;11.55;;;;;;;11.17;35.55;99571.50;5049763;28;20787;-68
2021/12/22 10:51:58;;;;;;;18.38;11.63;;;;;;;11.71;35.93;99589.25;5036862;28;20127;-70
2021/12/22 10:54:32;;;;;;;16.50;11.10;;;;;;;12.21;35.14;99573.09;5040440;28;20043;-68
2021/12/22 10:56:59;;;;;;;18.48;12.32;;;;;;;12.98;34.33;99590.38;5043643;28;20033;-68
2021/12/22 10:59:24;;;;;;;19.23;11.75;;;;;;;11.02;36.85;99583.38;5043271;28;20032;-67
2021/12/22 11:01:53;;;;;;;16.35;11.90;;;;;;;11.90;36.02;99579.69;5042528;28;20031;-68
2021/12/22 11:04:26;;;;;;;16.65;12.13;;;;;;;10.98;36.68;99588.31;5035895;28;20032;-72
2021/12/22 11:06:55;;;;;;;16.98;11.30;;;;;;;10.00;38.15;99557.59;5045366;28;20102;-71
2021/12/22 11:09:22;;;;;;;17.85;12.20;;;;;;;9.71;38.16;99574.53;5043467;28;20390;-69
2021/12/22 11:11:57;;;;;;;15.80;11.50;;;;;;;10.03;38.67;99567.19;5053801;28;20029;-71
2021/12/22 11:14:35;;;;;;;18.50;11.50;;;;;;;10.43;37.77;99560.66;5045043;28;20191;-67
2021/12/22 11:17:15;;;;;;;16.20;12.43;;;;;;;9.73;37.32;99529.25;5044026;28;20706;-67
2021/12/22 11:20:04;;;;;;;17.15;11.50;;;;;;;10.57;37.71;99558.97;5052614;28;20032;-67
2021/12/22 11:22:40;;;;;;;15.65;10.43;;;;;;;10.14;38.55;99520.81;5048468;28;20033;-67
2021/12/22 11:25:07;;;;;;;16.75;11.52;;;;;;;10.65;37.50;99549.94;5042989;28;20036;-68
2021/12/22 11:27:33;;;;;;;16.55;11.80;;;;;;;9.96;39.50;99553.59;5047834;28;20025;-68
2021/12/22 11:29:59;;;;;;;16.85;12.02;;;;;;;11.02;36.49;99545.47;5045419;28;20040;-68
2021/12/22 11:32:31;;;;;;;16.77;12.20;;;;;;;11.10;37.04;99546.19;5052936;28;20037;-68
2021/12/22 11:35:00;;;;;;;17.80;11.85;;;;;;;12.02;35.73;99542.84;5047701;28;20045;-68
2021/12/22 11:37:26;;;;;;;15.27;11.48;;;;;;;12.77;35.34;99542.41;5048471;28;20442;-68
2021/12/22 11:39:52;;;;;;;14.57;11.15;;;;;;;13.86;32.80;99530.72;5049398;28;20046;-68